Time;durP1;ratioP1;P1;durP2;ratioP2;P2;SDS_P1;SDS_P2;PMS_P1;PMS_P2;Temp;Humidity;BMP_temperature;BMP_pressure;BME280_temperature;BME280_humidity;BME280_pressure;Samples;Min_cycle;Max_cycle;Signal;HPM_P1;HPM_P2
2024/02/27 00:01:09;;;;;;;2.67;0.90;;;;;;;;;;5087364;28;20543;-64
2024/02/27 00:03:35;;;;;;;0.45;0.45;;;;;;;;;;5096944;28;20105;-64
2024/02/27 00:06:00;;;;;;;0.43;0.43;;;;;;;;;;5096913;28;20076;-64
2024/02/27 00:08:25;;;;;;;0.10;0.10;;;;;;;;;;5096564;28;20016;-64
2024/02/27 00:10:50;;;;;;;0.10;0.10;;;;;;;;;;5096761;28;20241;-64
2024/02/27 00:13:16;;;;;;;0.60;0.60;;;;;;;;;;5096432;28;20027;-64
2024/02/27 00:15:41;;;;;;;0.43;0.20;;;;;;;;;;5086773;28;20862;-64
2024/02/27 00:18:07;;;;;;;0.08;0.08;;;;;;;;;;5076245;28;20660;-64
2024/02/27 00:20:32;;;;;;;0.10;0.10;;;;;;;;;;5076127;28;20070;-64
2024/02/27 00:22:57;;;;;;;0.10;0.10;;;;;;;;;;5076063;28;20261;-64
2024/02/27 00:25:22;;;;;;;0.00;0.00;;;;;;;;;;5076249;28;20598;-64
2024/02/27 00:27:49;;;;;;;0.10;0.10;;;;;;;;;;5075987;28;20020;-64
2024/02/27 00:30:15;;;;;;;0.00;0.00;;;;;;;;;;5083530;28;20028;-64
2024/02/27 00:32:40;;;;;;;1.48;1.38;;;;;;;;;;5096070;28;20016;-64
2024/02/27 00:35:05;;;;;;;0.50;0.50;;;;;;;;;;5096080;28;20069;-64
2024/02/27 00:37:31;;;;;;;0.20;0.20;;;;;;;;;;5096203;28;20241;-64
2024/02/27 00:39:56;;;;;;;3.43;0.50;;;;;;;;;;5095959;28;20424;-64
2024/02/27 00:42:21;;;;;;;0.20;0.20;;;;;;;;;;5096155;28;20268;-64
2024/02/27 00:44:47;;;;;;;0.20;0.20;;;;;;;;;;5091405;28;20016;-64
2024/02/27 00:47:12;;;;;;;0.10;0.10;;;;;;;;;;5075604;28;20063;-64
2024/02/27 00:49:38;;;;;;;0.20;0.20;;;;;;;;;;5075723;28;20363;-64
2024/02/27 00:52:05;;;;;;;0.13;0.13;;;;;;;;;;5075788;28;20028;-64
2024/02/27 00:54:30;;;;;;;0.22;0.22;;;;;;;;;;5075756;28;20044;-64
2024/02/27 00:56:55;;;;;;;0.05;0.05;;;;;;;;;;5075689;28;20485;-64
2024/02/27 00:59:20;;;;;;;0.00;0.00;;;;;;;;;;5077464;28;20044;-64
2024/02/27 01:01:46;;;;;;;1.00;0.90;;;;;;;;;;5095619;28;20244;-64
2024/02/27 01:04:11;;;;;;;0.10;0.10;;;;;;;;;;5095115;28;20105;-64
2024/02/27 01:06:36;;;;;;;0.30;0.30;;;;;;;;;;5095701;28;20260;-64
2024/02/27 01:09:01;;;;;;;1.50;0.60;;;;;;;;;;5095552;28;20255;-64
2024/02/27 01:11:27;;;;;;;0.10;0.10;;;;;;;;;;5095363;28;20494;-64
2024/02/27 01:13:52;;;;;;;0.20;0.20;;;;;;;;;;5095304;28;20086;-64
2024/02/27 01:16:20;;;;;;;0.00;0.00;;;;;;;;;;5076686;28;20472;-64
2024/02/27 01:18:45;;;;;;;0.32;0.32;;;;;;;;;;5075166;28;20414;-64
2024/02/27 01:21:10;;;;;;;0.00;0.00;;;;;;;;;;5074981;28;20017;-64
2024/02/27 01:23:36;;;;;;;0.57;0.57;;;;;;;;;;5074896;28;20273;-64
2024/02/27 01:26:01;;;;;;;3.22;0.52;;;;;;;;;;5074821;28;20029;-64
2024/02/27 01:28:26;;;;;;;0.00;0.00;;;;;;;;;;5075023;28;20028;-64
2024/02/27 01:30:51;;;;;;;0.40;0.40;;;;;;;;;;5091511;28;20023;-64
2024/02/27 01:33:16;;;;;;;0.00;0.00;;;;;;;;;;5095026;28;20241;-64
2024/02/27 01:35:42;;;;;;;0.30;0.30;;;;;;;;;;5094922;28;20237;-64
2024/02/27 01:38:07;;;;;;;0.23;0.23;;;;;;;;;;5080764;28;20827;-64
2024/02/27 01:40:32;;;;;;;0.10;0.10;;;;;;;;;;5074818;28;20598;-64
2024/02/27 01:42:58;;;;;;;0.15;0.15;;;;;;;;;;5074495;28;20091;-64
2024/02/27 01:45:23;;;;;;;0.00;0.00;;;;;;;;;;5086991;28;20016;-64
2024/02/27 01:47:51;;;;;;;0.30;0.30;;;;;;;;;;5094718;28;20245;-64
2024/02/27 01:50:17;;;;;;;0.40;0.40;;;;;;;;;;5094655;28;20464;-64
2024/02/27 01:52:43;;;;;;;0.90;0.85;;;;;;;;;;5094787;28;20028;-64
2024/02/27 01:55:09;;;;;;;0.45;0.45;;;;;;;;;;5094263;28;20471;-64
2024/02/27 01:57:34;;;;;;;0.00;0.00;;;;;;;;;;5094521;28;20460;-64
2024/02/27 02:00:00;;;;;;;0.52;0.52;;;;;;;;;;5082249;28;20056;-64
2024/02/27 02:02:25;;;;;;;0.20;0.20;;;;;;;;;;5074326;28;20107;-64
2024/02/27 02:04:51;;;;;;;0.00;0.00;;;;;;;;;;5074356;28;20358;-64
2024/02/27 02:07:17;;;;;;;0.13;0.13;;;;;;;;;;5074136;28;20542;-64
2024/02/27 02:09:42;;;;;;;0.25;0.25;;;;;;;;;;5073987;28;20741;-64
2024/02/27 02:12:08;;;;;;;0.47;0.47;;;;;;;;;;5073830;28;20043;-64
2024/02/27 02:14:34;;;;;;;0.45;0.45;;;;;;;;;;5083754;28;20357;-64
2024/02/27 02:16:59;;;;;;;0.10;0.10;;;;;;;;;;5093794;28;20051;-64
2024/02/27 02:19:24;;;;;;;0.10;0.10;;;;;;;;;;5094247;28;20055;-64
2024/02/27 02:21:50;;;;;;;0.10;0.10;;;;;;;;;;5094035;28;20286;-64
2024/02/27 02:24:17;;;;;;;0.10;0.10;;;;;;;;;;5093931;28;20229;-64
2024/02/27 02:26:42;;;;;;;0.30;0.30;;;;;;;;;;5075803;28;20016;-64
2024/02/27 02:29:07;;;;;;;0.63;0.40;;;;;;;;;;5087563;28;20043;-64
2024/02/27 02:31:33;;;;;;;0.33;0.33;;;;;;;;;;5073607;28;20260;-64
2024/02/27 02:33:58;;;;;;;0.27;0.27;;;;;;;;;;5074693;28;20272;-64
2024/02/27 02:36:23;;;;;;;0.53;0.53;;;;;;;;;;5073527;28;20289;-64
2024/02/27 02:38:49;;;;;;;0.45;0.45;;;;;;;;;;5073381;28;20277;-64
2024/02/27 02:41:14;;;;;;;0.17;0.17;;;;;;;;;;5073500;28;20092;-64
2024/02/27 02:43:39;;;;;;;0.10;0.10;;;;;;;;;;5087158;28;20391;-64
2024/02/27 02:46:04;;;;;;;0.40;0.40;;;;;;;;;;5093641;28;20469;-64
2024/02/27 02:48:30;;;;;;;0.30;0.30;;;;;;;;;;5093587;28;20251;-64
2024/02/27 02:50:55;;;;;;;0.70;0.70;;;;;;;;;;5088636;28;20036;-64
2024/02/27 02:53:21;;;;;;;0.40;0.40;;;;;;;;;;5073295;28;20249;-64
2024/02/27 02:55:46;;;;;;;0.83;0.50;;;;;;;;;;5073448;28;20056;-64
2024/02/27 02:58:11;;;;;;;0.20;0.20;;;;;;;;;;5073029;28;20280;-64
2024/02/27 03:00:37;;;;;;;0.20;0.20;;;;;;;;;;5073522;28;20257;-64
2024/02/27 03:03:02;;;;;;;0.63;0.52;;;;;;;;;;5073415;28;20264;-64
2024/02/27 03:05:27;;;;;;;0.17;0.17;;;;;;;;;;5076144;28;20107;-64
2024/02/27 03:07:53;;;;;;;0.10;0.10;;;;;;;;;;5093359;28;20493;-64
2024/02/27 03:10:18;;;;;;;0.32;0.32;;;;;;;;;;5093380;28;20593;-64
2024/02/27 03:12:44;;;;;;;1.45;0.68;;;;;;;;;;5093275;28;20051;-64
2024/02/27 03:15:09;;;;;;;0.28;0.28;;;;;;;;;;5093518;28;20042;-64
2024/02/27 03:17:35;;;;;;;0.50;0.50;;;;;;;;;;5093296;28;20020;-64
2024/02/27 03:20:00;;;;;;;0.20;0.20;;;;;;;;;;5091717;28;20024;-64
2024/02/27 03:22:25;;;;;;;0.55;0.55;;;;;;;;;;5073126;28;20021;-64
2024/02/27 03:24:50;;;;;;;0.25;0.25;;;;;;;;;;5073287;28;20465;-64
2024/02/27 03:27:16;;;;;;;0.40;0.40;;;;;;;;;;5082246;28;20399;-64
2024/02/27 03:29:41;;;;;;;0.47;0.47;;;;;;;;;;5093268;28;20020;-67
2024/02/27 03:32:06;;;;;;;0.23;0.23;;;;;;;;;;5093102;28;20027;-68
2024/02/27 03:34:35;;;;;;;0.40;0.40;;;;;;;;;;5093406;28;20245;-67
2024/02/27 03:37:01;;;;;;;1.63;1.20;;;;;;;;;;5092682;28;20438;-67
2024/02/27 03:39:26;;;;;;;0.32;0.32;;;;;;;;;;5093237;28;20068;-67
2024/02/27 03:41:51;;;;;;;2.83;1.17;;;;;;;;;;5093159;28;20392;-67
2024/02/27 03:44:16;;;;;;;0.73;0.73;;;;;;;;;;5092658;28;20261;-67
2024/02/27 03:46:42;;;;;;;0.20;0.20;;;;;;;;;;5092994;28;20479;-67
2024/02/27 03:49:07;;;;;;;0.45;0.32;;;;;;;;;;5093021;28;20055;-67
2024/02/27 03:51:32;;;;;;;0.82;0.82;;;;;;;;;;5076961;28;20048;-67
2024/02/27 03:53:58;;;;;;;0.60;0.60;;;;;;;;;;5072796;28;20020;-68
2024/02/27 03:56:23;;;;;;;0.27;0.27;;;;;;;;;;5083622;28;20279;-67
2024/02/27 03:58:48;;;;;;;0.60;0.60;;;;;;;;;;5092827;28;20299;-67
2024/02/27 04:01:16;;;;;;;1.20;0.60;;;;;;;;;;5092876;28;20039;-68
2024/02/27 04:03:42;;;;;;;0.73;0.73;;;;;;;;;;5093102;28;20027;-67
2024/02/27 04:06:07;;;;;;;0.30;0.30;;;;;;;;;;5092838;28;20020;-68
2024/02/27 04:08:32;;;;;;;1.02;0.93;;;;;;;;;;5092812;28;20059;-67
2024/02/27 04:10:58;;;;;;;0.50;0.50;;;;;;;;;;5082927;28;20392;-67
2024/02/27 04:13:24;;;;;;;0.22;0.22;;;;;;;;;;5072387;28;20253;-67
2024/02/27 04:15:49;;;;;;;0.52;0.52;;;;;;;;;;5072812;28;20579;-68
2024/02/27 04:18:15;;;;;;;0.52;0.52;;;;;;;;;;5072737;28;20028;-67
2024/02/27 04:20:40;;;;;;;0.15;0.15;;;;;;;;;;5075946;28;20369;-68
2024/02/27 04:23:05;;;;;;;0.77;0.65;;;;;;;;;;5076349;28;20111;-67
2024/02/27 04:25:31;;;;;;;0.10;0.10;;;;;;;;;;5083750;28;20009;-68
2024/02/27 04:27:57;;;;;;;0.30;0.30;;;;;;;;;;5095830;28;20261;-68
2024/02/27 04:30:22;;;;;;;0.47;0.47;;;;;;;;;;5096134;28;20020;-67
2024/02/27 04:32:47;;;;;;;1.80;0.93;;;;;;;;;;5096195;28;20016;-69
2024/02/27 04:35:14;;;;;;;0.35;0.35;;;;;;;;;;5096339;28;20252;-68
2024/02/27 04:37:39;;;;;;;3.70;1.02;;;;;;;;;;5077899;28;20024;-64
2024/02/27 04:40:05;;;;;;;0.10;0.10;;;;;;;;;;5091665;28;20024;-64
2024/02/27 04:42:30;;;;;;;2.33;1.00;;;;;;;;;;5075664;28;20028;-64
2024/02/27 04:44:55;;;;;;;0.73;0.57;;;;;;;;;;5075667;28;20035;-64
2024/02/27 04:47:20;;;;;;;0.10;0.10;;;;;;;;;;5075628;28;20277;-64
2024/02/27 04:49:46;;;;;;;2.42;0.73;;;;;;;;;;5075797;28;20253;-64
2024/02/27 04:52:12;;;;;;;0.08;0.08;;;;;;;;;;5075487;28;20054;-64
2024/02/27 04:54:37;;;;;;;0.82;0.82;;;;;;;;;;5075723;28;20078;-64
2024/02/27 04:57:03;;;;;;;0.17;0.17;;;;;;;;;;5079521;28;20375;-64
2024/02/27 04:59:28;;;;;;;0.95;0.95;;;;;;;;;;5087088;28;20316;-64
2024/02/27 05:01:53;;;;;;;0.63;0.63;;;;;;;;;;5075436;28;20036;-64
2024/02/27 05:04:18;;;;;;;0.10;0.10;;;;;;;;;;5075317;28;20055;-64
2024/02/27 05:06:43;;;;;;;0.57;0.57;;;;;;;;;;5088802;28;20265;-65
2024/02/27 05:09:09;;;;;;;0.73;0.73;;;;;;;;;;5075206;28;20265;-65
2024/02/27 05:11:34;;;;;;;1.05;0.95;;;;;;;;;;5075345;28;20252;-65
2024/02/27 05:14:00;;;;;;;0.10;0.10;;;;;;;;;;5075152;28;20020;-65
2024/02/27 05:16:25;;;;;;;0.10;0.10;;;;;;;;;;5074948;28;20059;-65
2024/02/27 05:18:51;;;;;;;1.35;1.10;;;;;;;;;;5074917;28;20028;-65
2024/02/27 05:21:17;;;;;;;0.20;0.20;;;;;;;;;;5075039;28;20029;-65
2024/02/27 05:23:42;;;;;;;0.32;0.32;;;;;;;;;;5074947;28;20024;-65
2024/02/27 05:26:07;;;;;;;0.90;0.77;;;;;;;;;;5074898;28;20028;-65
2024/02/27 05:28:36;;;;;;;4.23;1.30;;;;;;;;;;5074858;28;20245;-65
2024/02/27 05:31:01;;;;;;;1.02;0.85;;;;;;;;;;5055681;28;20812;-65
2024/02/27 05:33:27;;;;;;;0.55;0.55;;;;;;;;;;5074735;28;20123;-65
2024/02/27 05:35:52;;;;;;;0.50;0.50;;;;;;;;;;5074719;28;20472;-65
2024/02/27 05:38:18;;;;;;;0.20;0.20;;;;;;;;;;5074448;28;20656;-65
2024/02/27 05:40:43;;;;;;;0.90;0.82;;;;;;;;;;5074598;28;20099;-65
2024/02/27 05:43:08;;;;;;;0.77;0.77;;;;;;;;;;5074585;28;20021;-65
2024/02/27 05:45:35;;;;;;;0.53;0.53;;;;;;;;;;5074520;28;20564;-65
2024/02/27 05:48:00;;;;;;;0.82;0.82;;;;;;;;;;5074712;28;20242;-65
2024/02/27 05:50:26;;;;;;;1.00;1.00;;;;;;;;;;5074461;28;20545;-65
2024/02/27 05:52:51;;;;;;;0.75;0.75;;;;;;;;;;5074267;28;20316;-65
2024/02/27 05:55:16;;;;;;;0.57;0.57;;;;;;;;;;5074676;28;20031;-65
2024/02/27 05:57:41;;;;;;;0.33;0.33;;;;;;;;;;5074268;28;20019;-65
2024/02/27 06:00:10;;;;;;;0.50;0.50;;;;;;;;;;5069645;28;20397;-65
2024/02/27 06:02:36;;;;;;;1.70;1.45;;;;;;;;;;5074117;28;20025;-65
2024/02/27 06:05:01;;;;;;;0.60;0.60;;;;;;;;;;5074382;28;20044;-65
2024/02/27 06:07:27;;;;;;;2.13;1.60;;;;;;;;;;5074283;28;20028;-65
2024/02/27 06:09:52;;;;;;;2.83;1.00;;;;;;;;;;5074056;28;20469;-65
2024/02/27 06:12:17;;;;;;;0.75;0.75;;;;;;;;;;5074135;28;20028;-65
2024/02/27 06:14:43;;;;;;;1.15;1.05;;;;;;;;;;5073954;28;20479;-65
2024/02/27 06:17:08;;;;;;;0.50;0.50;;;;;;;;;;5074117;28;20021;-65
2024/02/27 06:19:34;;;;;;;1.17;0.77;;;;;;;;;;5073796;28;20426;-65
2024/02/27 06:22:13;;;;;;;0.57;0.57;;;;;;;;;;5074048;28;20241;-65
2024/02/27 06:24:38;;;;;;;1.80;0.73;;;;;;;;;;5073975;28;20021;-65
2024/02/27 06:27:04;;;;;;;1.95;1.25;;;;;;;;;;5073932;28;20119;-65
2024/02/27 06:29:29;;;;;;;2.08;0.75;;;;;;;;;;5073963;28;20456;-65
2024/02/27 06:31:54;;;;;;;0.90;0.90;;;;;;;;;;5073694;28;20511;-65
2024/02/27 06:34:19;;;;;;;0.80;0.80;;;;;;;;;;5073582;28;20249;-65
2024/02/27 06:36:45;;;;;;;1.85;1.70;;;;;;;;;;5073591;28;20032;-65
2024/02/27 06:39:10;;;;;;;0.60;0.60;;;;;;;;;;5079254;28;20414;-65
2024/02/27 06:41:35;;;;;;;0.52;0.52;;;;;;;;;;5093424;28;20619;-65
2024/02/27 06:44:00;;;;;;;0.73;0.73;;;;;;;;;;5093741;28;20019;-65
2024/02/27 06:46:26;;;;;;;0.57;0.57;;;;;;;;;;5089710;28;20347;-65
2024/02/27 06:48:52;;;;;;;0.47;0.47;;;;;;;;;;5084643;28;20020;-65
2024/02/27 06:51:17;;;;;;;0.93;0.93;;;;;;;;;;5084555;28;20610;-65
2024/02/27 06:53:42;;;;;;;1.13;1.00;;;;;;;;;;5072640;28;20023;-65
2024/02/27 06:56:08;;;;;;;0.60;0.60;;;;;;;;;;5072569;28;20268;-65
2024/02/27 06:58:33;;;;;;;1.75;1.27;;;;;;;;;;5072731;28;20273;-65
2024/02/27 07:00:58;;;;;;;0.73;0.73;;;;;;;;;;5072168;28;20075;-65
2024/02/27 07:03:24;;;;;;;0.57;0.57;;;;;;;;;;5072008;28;20020;-65
2024/02/27 07:05:49;;;;;;;0.95;0.95;;;;;;;;;;5072652;28;20464;-65
2024/02/27 07:08:15;;;;;;;1.30;0.53;;;;;;;;;;5072685;28;20074;-65
2024/02/27 07:10:40;;;;;;;1.25;0.93;;;;;;;;;;5072584;28;20257;-65
2024/02/27 07:13:09;;;;;;;0.73;0.73;;;;;;;;;;5072472;28;20021;-66
2024/02/27 07:15:35;;;;;;;0.88;0.85;;;;;;;;;;5072973;28;20100;-66
2024/02/27 07:18:00;;;;;;;0.85;0.85;;;;;;;;;;5071871;28;20044;-66
2024/02/27 07:20:26;;;;;;;0.82;0.82;;;;;;;;;;5072620;28;20024;-66
2024/02/27 07:22:51;;;;;;;1.90;0.57;;;;;;;;;;5072363;28;20016;-66
2024/02/27 07:25:16;;;;;;;1.60;0.68;;;;;;;;;;5072613;28;20336;-66
2024/02/27 07:27:42;;;;;;;0.97;0.93;;;;;;;;;;5072359;28;20106;-66
2024/02/27 07:30:08;;;;;;;0.20;0.20;;;;;;;;;;5072432;28;20297;-66
2024/02/27 07:32:33;;;;;;;1.30;0.45;;;;;;;;;;5071756;28;20087;-66
2024/02/27 07:34:59;;;;;;;1.30;1.20;;;;;;;;;;5072599;28;20024;-66
2024/02/27 07:37:24;;;;;;;0.93;0.93;;;;;;;;;;5072389;28;20020;-66
2024/02/27 07:39:49;;;;;;;1.57;1.37;;;;;;;;;;5072401;28;20265;-66
2024/02/27 07:42:14;;;;;;;1.17;0.93;;;;;;;;;;5072997;28;20352;-66
2024/02/27 07:44:40;;;;;;;0.50;0.50;;;;;;;;;;5072888;28;20024;-66
2024/02/27 07:47:05;;;;;;;1.55;1.45;;;;;;;;;;5073072;28;20337;-66
2024/02/27 07:49:30;;;;;;;4.43;1.65;;;;;;;;;;5072773;28;20021;-66
2024/02/27 07:51:55;;;;;;;1.60;1.33;;;;;;;;;;5073004;28;20031;-66
2024/02/27 07:54:21;;;;;;;1.83;1.70;;;;;;;;;;5074358;28;20464;-66
2024/02/27 07:56:46;;;;;;;0.40;0.40;;;;;;;;;;5076586;28;20721;-66
2024/02/27 07:59:12;;;;;;;4.93;0.50;;;;;;;;;;5076466;28;20506;-66
2024/02/27 08:01:38;;;;;;;0.65;0.65;;;;;;;;;;5076148;28;20730;-66
2024/02/27 08:04:04;;;;;;;0.80;0.80;;;;;;;;;;5076355;28;20032;-65
2024/02/27 08:06:29;;;;;;;1.13;1.13;;;;;;;;;;5076595;28;20024;-65
2024/02/27 08:08:55;;;;;;;2.13;2.00;;;;;;;;;;5076655;28;20027;-65
2024/02/27 08:11:21;;;;;;;0.45;0.45;;;;;;;;;;5076495;28;20025;-65
2024/02/27 08:13:47;;;;;;;0.28;0.28;;;;;;;;;;5076204;28;20116;-65
2024/02/27 08:16:12;;;;;;;1.98;1.67;;;;;;;;;;5076212;28;20063;-66
2024/02/27 08:18:37;;;;;;;0.17;0.17;;;;;;;;;;5076358;28;20465;-66
2024/02/27 08:21:03;;;;;;;1.20;0.73;;;;;;;;;;5076171;28;20469;-66
2024/02/27 08:23:29;;;;;;;0.88;0.88;;;;;;;;;;5076340;28;20662;-66
2024/02/27 08:25:54;;;;;;;0.30;0.30;;;;;;;;;;5076001;28;20051;-66
2024/02/27 08:28:20;;;;;;;1.20;1.13;;;;;;;;;;5075976;28;20023;-66
2024/02/27 08:30:46;;;;;;;0.93;0.93;;;;;;;;;;5076226;28;20126;-65
2024/02/27 08:33:11;;;;;;;0.73;0.52;;;;;;;;;;5075911;28;20551;-66
2024/02/27 08:35:36;;;;;;;0.70;0.70;;;;;;;;;;5075905;28;20029;-66
2024/02/27 08:38:02;;;;;;;1.10;1.00;;;;;;;;;;5057846;28;20265;-66
2024/02/27 08:40:28;;;;;;;0.57;0.57;;;;;;;;;;5075960;28;20348;-66
2024/02/27 08:42:53;;;;;;;1.30;1.20;;;;;;;;;;5075937;28;20103;-66
2024/02/27 08:45:19;;;;;;;0.40;0.40;;;;;;;;;;5075830;28;20487;-65
2024/02/27 08:47:44;;;;;;;0.45;0.45;;;;;;;;;;5075949;28;20480;-65
2024/02/27 08:50:11;;;;;;;0.90;0.90;;;;;;;;;;5075643;28;20033;-65
2024/02/27 08:52:37;;;;;;;1.27;1.17;;;;;;;;;;5075831;28;20387;-66
2024/02/27 08:55:02;;;;;;;1.50;1.40;;;;;;;;;;5075504;28;20091;-65
2024/02/27 08:57:28;;;;;;;0.80;0.80;;;;;;;;;;5075517;28;20025;-65
2024/02/27 08:59:53;;;;;;;1.00;1.00;;;;;;;;;;5075232;28;20037;-65
2024/02/27 09:02:18;;;;;;;0.55;0.55;;;;;;;;;;5075436;28;20249;-65
2024/02/27 09:04:44;;;;;;;1.40;1.20;;;;;;;;;;5075060;28;20103;-65
2024/02/27 09:07:10;;;;;;;0.60;0.60;;;;;;;;;;5075247;28;20040;-65
2024/02/27 09:09:36;;;;;;;0.93;0.90;;;;;;;;;;5075188;28;20522;-65
2024/02/27 09:12:01;;;;;;;1.67;1.58;;;;;;;;;;5075475;28;20052;-65
2024/02/27 09:14:27;;;;;;;0.50;0.50;;;;;;;;;;5075398;28;20028;-66
2024/02/27 09:16:52;;;;;;;0.93;0.87;;;;;;;;;;5075215;28;20465;-66
2024/02/27 09:19:20;;;;;;;1.00;0.95;;;;;;;;;;5075101;28;20847;-66
2024/02/27 09:21:45;;;;;;;1.17;1.08;;;;;;;;;;5075016;28;20100;-66
2024/02/27 09:24:10;;;;;;;0.95;0.95;;;;;;;;;;5075180;28;20142;-65
2024/02/27 09:26:36;;;;;;;0.43;0.43;;;;;;;;;;5074976;28;20026;-65
2024/02/27 09:29:02;;;;;;;0.20;0.20;;;;;;;;;;5074914;28;20237;-65
2024/02/27 09:31:27;;;;;;;1.20;1.10;;;;;;;;;;5075013;28;20256;-65
2024/02/27 09:33:52;;;;;;;0.82;0.82;;;;;;;;;;5075006;28;20024;-65
2024/02/27 09:36:18;;;;;;;3.93;1.03;;;;;;;;;;5074744;28;20492;-65
2024/02/27 09:38:43;;;;;;;0.60;0.60;;;;;;;;;;5074535;28;20273;-65
2024/02/27 09:41:14;;;;;;;4.25;0.98;;;;;;;;;;5074635;28;20066;-65
2024/02/27 09:43:41;;;;;;;0.83;0.73;;;;;;;;;;5056643;28;20025;-65
2024/02/27 09:46:06;;;;;;;1.00;1.00;;;;;;;;;;5074508;28;20020;-65
2024/02/27 09:48:41;;;;;;;0.82;0.82;;;;;;;;;;5074477;28;20073;-65
2024/02/27 09:51:07;;;;;;;0.80;0.80;;;;;;;;;;5074393;28;20107;-65
2024/02/27 09:53:32;;;;;;;2.47;2.17;;;;;;;;;;5074371;28;20047;-65
2024/02/27 09:55:57;;;;;;;2.30;0.82;;;;;;;;;;5074336;28;20055;-65
2024/02/27 09:58:23;;;;;;;0.77;0.77;;;;;;;;;;5074321;28;20025;-65
2024/02/27 10:00:48;;;;;;;5.03;2.67;;;;;;;;;;5074034;28;20269;-65
2024/02/27 10:03:14;;;;;;;0.32;0.32;;;;;;;;;;5074440;28;20020;-66
2024/02/27 10:05:40;;;;;;;0.43;0.43;;;;;;;;;;5074090;28;20099;-66
2024/02/27 10:08:10;;;;;;;0.40;0.40;;;;;;;;;;5074337;28;20059;-66
2024/02/27 10:10:37;;;;;;;0.08;0.08;;;;;;;;;;5074036;28;20111;-66
2024/02/27 10:13:03;;;;;;;2.45;0.88;;;;;;;;;;5074180;28;20020;-66
2024/02/27 10:15:28;;;;;;;0.32;0.32;;;;;;;;;;5073980;28;20361;-66
2024/02/27 10:17:54;;;;;;;0.32;0.32;;;;;;;;;;5073392;28;20399;-66
2024/02/27 10:20:26;;;;;;;1.92;1.73;;;;;;;;;;5073760;28;20025;-66
2024/02/27 10:22:52;;;;;;;1.38;1.27;;;;;;;;;;5073861;28;20009;-66
2024/02/27 10:25:18;;;;;;;0.80;0.80;;;;;;;;;;5073773;28;20070;-66
2024/02/27 10:27:44;;;;;;;3.47;0.73;;;;;;;;;;5074089;28;20256;-65
2024/02/27 10:30:10;;;;;;;0.55;0.55;;;;;;;;;;5073928;28;20407;-66
2024/02/27 10:32:35;;;;;;;0.60;0.60;;;;;;;;;;5073713;28;20027;-66
2024/02/27 10:35:04;;;;;;;0.90;0.90;;;;;;;;;;5073881;28;20389;-66
2024/02/27 10:37:32;;;;;;;0.40;0.40;;;;;;;;;;5073841;28;20531;-65
2024/02/27 10:39:59;;;;;;;0.50;0.50;;;;;;;;;;5073482;28;20020;-66
2024/02/27 10:42:25;;;;;;;0.95;0.95;;;;;;;;;;5073452;28;20146;-65
2024/02/27 10:44:51;;;;;;;0.50;0.50;;;;;;;;;;5073586;28;20044;-65
2024/02/27 10:47:20;;;;;;;0.55;0.55;;;;;;;;;;5073471;28;20045;-65
2024/02/27 10:49:47;;;;;;;0.52;0.52;;;;;;;;;;5073393;28;20023;-65
2024/02/27 10:52:14;;;;;;;0.98;0.88;;;;;;;;;;5073342;28;20052;-65
2024/02/27 10:54:40;;;;;;;0.82;0.82;;;;;;;;;;5073365;28;20024;-66
2024/02/27 10:57:06;;;;;;;0.70;0.70;;;;;;;;;;5073558;28;20028;-66
2024/02/27 10:59:32;;;;;;;0.35;0.35;;;;;;;;;;5073485;28;20020;-66
2024/02/27 11:01:59;;;;;;;0.38;0.38;;;;;;;;;;5073238;28;20040;-66
2024/02/27 11:04:27;;;;;;;0.43;0.43;;;;;;;;;;5073519;28;20027;-65
2024/02/27 11:06:53;;;;;;;0.47;0.47;;;;;;;;;;5073517;28;20031;-66
2024/02/27 11:09:24;;;;;;;0.77;0.77;;;;;;;;;;5073309;28;20056;-66
2024/02/27 11:11:51;;;;;;;0.28;0.28;;;;;;;;;;5073154;28;20048;-65
2024/02/27 11:14:18;;;;;;;0.25;0.25;;;;;;;;;;5073170;28;20027;-65
2024/02/27 11:16:45;;;;;;;0.10;0.10;;;;;;;;;;5072714;28;20023;-66
2024/02/27 11:19:16;;;;;;;0.50;0.50;;;;;;;;;;5073004;28;20020;-65
2024/02/27 11:21:45;;;;;;;0.47;0.47;;;;;;;;;;5081945;28;20020;-65
2024/02/27 11:24:11;;;;;;;3.53;1.20;;;;;;;;;;5069209;28;20478;-65
2024/02/27 11:26:37;;;;;;;0.77;0.77;;;;;;;;;;5072149;28;20542;-65
2024/02/27 11:29:03;;;;;;;0.63;0.43;;;;;;;;;;5075176;28;20489;-66
2024/02/27 11:31:29;;;;;;;1.25;1.10;;;;;;;;;;5076266;28;20484;-66
2024/02/27 11:33:56;;;;;;;0.77;0.77;;;;;;;;;;5076196;28;20115;-65
2024/02/27 11:36:21;;;;;;;1.55;0.77;;;;;;;;;;5075654;28;20058;-66
2024/02/27 11:38:46;;;;;;;1.58;1.05;;;;;;;;;;5076341;28;20476;-66
2024/02/27 11:41:16;;;;;;;0.80;0.77;;;;;;;;;;5076328;28;20008;-66
2024/02/27 11:43:43;;;;;;;0.85;0.55;;;;;;;;;;5076156;28;20027;-66
2024/02/27 11:46:26;;;;;;;0.10;0.10;;;;;;;;;;5076212;28;20024;-66
2024/02/27 11:48:52;;;;;;;0.55;0.55;;;;;;;;;;5076379;28;20488;-66
2024/02/27 11:51:24;;;;;;;0.25;0.25;;;;;;;;;;5075575;28;20081;-66
2024/02/27 11:53:49;;;;;;;0.98;0.98;;;;;;;;;;5076041;28;20085;-66
2024/02/27 11:56:15;;;;;;;1.43;0.90;;;;;;;;;;5076082;28;20024;-66
2024/02/27 11:58:41;;;;;;;0.20;0.20;;;;;;;;;;5075753;28;20394;-66
2024/02/27 12:01:12;;;;;;;0.90;0.80;;;;;;;;;;5075845;28;20140;-66
2024/02/27 12:03:37;;;;;;;0.80;0.80;;;;;;;;;;5076196;28;20053;-66
2024/02/27 12:06:03;;;;;;;0.22;0.22;;;;;;;;;;5075354;28;20425;-66
2024/02/27 12:08:29;;;;;;;0.55;0.55;;;;;;;;;;5075812;28;20031;-65
2024/02/27 12:10:54;;;;;;;0.30;0.30;;;;;;;;;;5075680;28;20032;-66
2024/02/27 12:13:20;;;;;;;0.93;0.77;;;;;;;;;;5075963;28;20104;-66
2024/02/27 12:15:53;;;;;;;0.90;0.73;;;;;;;;;;5075576;28;20017;-66
2024/02/27 12:18:19;;;;;;;0.20;0.20;;;;;;;;;;5075866;28;20094;-66
2024/02/27 12:20:48;;;;;;;0.98;0.57;;;;;;;;;;5077490;28;20028;-65
2024/02/27 12:23:13;;;;;;;1.23;0.68;;;;;;;;;;5095296;28;20066;-66
2024/02/27 12:25:42;;;;;;;0.87;0.87;;;;;;;;;;5085245;28;20369;-66
2024/02/27 12:28:08;;;;;;;0.40;0.40;;;;;;;;;;5075438;28;20260;-66
2024/02/27 12:30:33;;;;;;;0.40;0.40;;;;;;;;;;5075717;28;20046;-65
2024/02/27 12:32:58;;;;;;;0.70;0.70;;;;;;;;;;5078672;28;20052;-65
2024/02/27 12:35:26;;;;;;;1.20;1.17;;;;;;;;;;5086239;28;20252;-66
2024/02/27 12:37:51;;;;;;;1.75;1.65;;;;;;;;;;5082115;28;20261;-66
2024/02/27 12:40:19;;;;;;;0.95;0.95;;;;;;;;;;5080754;28;20464;-66
2024/02/27 12:42:45;;;;;;;0.10;0.10;;;;;;;;;;5076780;28;20062;-65
2024/02/27 12:45:12;;;;;;;0.55;0.55;;;;;;;;;;5075505;28;20016;-66
2024/02/27 12:47:38;;;;;;;0.20;0.20;;;;;;;;;;5075288;28;20012;-65
2024/02/27 12:50:03;;;;;;;0.70;0.70;;;;;;;;;;5074601;28;20020;-65
2024/02/27 12:52:28;;;;;;;0.90;0.90;;;;;;;;;;5075131;28;20013;-64
2024/02/27 12:54:54;;;;;;;1.30;1.13;;;;;;;;;;5074891;28;20024;-64
2024/02/27 12:57:19;;;;;;;0.40;0.40;;;;;;;;;;5074946;28;20048;-65
2024/02/27 12:59:44;;;;;;;0.50;0.50;;;;;;;;;;5074602;28;20158;-64
2024/02/27 13:02:10;;;;;;;1.40;1.03;;;;;;;;;;5074892;28;20112;-64
2024/02/27 13:04:38;;;;;;;0.43;0.32;;;;;;;;;;5074386;28;20246;-64
2024/02/27 13:07:03;;;;;;;0.60;0.60;;;;;;;;;;5074008;28;20024;-64
2024/02/27 13:09:29;;;;;;;1.48;0.63;;;;;;;;;;5074398;28;20032;-64
2024/02/27 13:12:03;;;;;;;0.38;0.38;;;;;;;;;;5074590;28;20115;-65
2024/02/27 13:14:28;;;;;;;0.50;0.50;;;;;;;;;;5074309;28;20487;-64
2024/02/27 13:16:53;;;;;;;1.73;1.10;;;;;;;;;;5074352;28;20024;-65
2024/02/27 13:19:19;;;;;;;1.10;1.07;;;;;;;;;;5074154;28;20281;-64
2024/02/27 13:21:44;;;;;;;0.40;0.40;;;;;;;;;;5086476;28;20262;-64
2024/02/27 13:24:09;;;;;;;0.10;0.10;;;;;;;;;;5074509;28;20589;-64
2024/02/27 13:26:35;;;;;;;0.83;0.57;;;;;;;;;;5074274;28;20725;-64
2024/02/27 13:29:00;;;;;;;0.53;0.53;;;;;;;;;;5074387;28;20633;-64
2024/02/27 13:31:25;;;;;;;0.88;0.80;;;;;;;;;;5074932;28;20252;-64
2024/02/27 13:33:50;;;;;;;0.30;0.30;;;;;;;;;;5094502;28;20024;-64
2024/02/27 13:36:16;;;;;;;0.57;0.30;;;;;;;;;;5094176;28;20027;-64
2024/02/27 13:38:41;;;;;;;2.35;1.48;;;;;;;;;;5094299;28;20402;-64
2024/02/27 13:41:06;;;;;;;0.27;0.27;;;;;;;;;;5094468;28;20065;-64
2024/02/27 13:43:31;;;;;;;0.10;0.10;;;;;;;;;;5094395;28;20240;-64
2024/02/27 13:45:58;;;;;;;0.17;0.17;;;;;;;;;;5078554;28;20027;-64
2024/02/27 13:48:23;;;;;;;0.00;0.00;;;;;;;;;;5073834;28;20024;-64
2024/02/27 13:50:49;;;;;;;0.30;0.30;;;;;;;;;;5073128;28;20070;-64
2024/02/27 13:53:15;;;;;;;1.25;0.65;;;;;;;;;;5073138;28;20681;-64
2024/02/27 13:55:41;;;;;;;1.30;0.43;;;;;;;;;;5074048;28;20017;-64
2024/02/27 13:58:06;;;;;;;0.60;0.60;;;;;;;;;;5055942;28;20388;-65
2024/02/27 14:00:32;;;;;;;0.10;0.10;;;;;;;;;;5073353;28;20049;-64
2024/02/27 14:02:57;;;;;;;0.68;0.65;;;;;;;;;;5093178;28;20027;-64
2024/02/27 14:05:23;;;;;;;0.65;0.65;;;;;;;;;;5092022;28;20012;-64
2024/02/27 14:07:50;;;;;;;0.40;0.40;;;;;;;;;;5073631;28;20067;-64
2024/02/27 14:10:16;;;;;;;0.13;0.13;;;;;;;;;;5073801;28;20451;-64
2024/02/27 14:12:41;;;;;;;0.20;0.20;;;;;;;;;;5089698;28;20059;-64
2024/02/27 14:15:07;;;;;;;2.42;1.05;;;;;;;;;;5082383;28;20031;-64
2024/02/27 14:17:32;;;;;;;0.75;0.75;;;;;;;;;;5091046;28;20016;-64
2024/02/27 14:19:57;;;;;;;0.40;0.40;;;;;;;;;;5086555;28;20063;-64
2024/02/27 14:22:23;;;;;;;0.25;0.25;;;;;;;;;;5078192;28;20261;-64
2024/02/27 14:24:48;;;;;;;0.38;0.32;;;;;;;;;;5090227;28;20016;-64
2024/02/27 14:27:13;;;;;;;0.45;0.45;;;;;;;;;;5093744;28;20027;-64
2024/02/27 14:29:39;;;;;;;0.80;0.80;;;;;;;;;;5093598;28;20395;-64
2024/02/27 14:32:04;;;;;;;0.60;0.60;;;;;;;;;;5073229;28;20086;-64
2024/02/27 14:34:29;;;;;;;0.52;0.52;;;;;;;;;;5072329;28;20241;-64